sensor_id;sensor_type;location;lat;lon;timestamp;P1;durP1;ratioP1;P2;durP2;ratioP2
11921;SDS011;6021;51.182;3.160;2023-10-19T00:00:38;2.57;;;1.43;;
11921;SDS011;6021;51.182;3.160;2023-10-19T00:03:09;4.93;;;1.60;;
11921;SDS011;6021;51.182;3.160;2023-10-19T00:05:38;4.63;;;1.37;;
11921;SDS011;6021;51.182;3.160;2023-10-19T00:08:08;2.30;;;1.40;;
11921;SDS011;6021;51.182;3.160;2023-10-19T00:10:50;1.80;;;1.10;;
11921;SDS011;6021;51.182;3.160;2023-10-19T00:13:31;3.17;;;1.20;;
11921;SDS011;6021;51.182;3.160;2023-10-19T00:16:01;2.87;;;1.40;;
11921;SDS011;6021;51.182;3.160;2023-10-19T00:18:32;3.43;;;1.30;;
11921;SDS011;6021;51.182;3.160;2023-10-19T00:21:01;3.00;;;1.30;;
11921;SDS011;6021;51.182;3.160;2023-10-19T00:23:34;2.90;;;1.20;;
11921;SDS011;6021;51.182;3.160;2023-10-19T00:26:03;2.87;;;1.10;;
11921;SDS011;6021;51.182;3.160;2023-10-19T00:28:37;2.50;;;1.17;;
11921;SDS011;6021;51.182;3.160;2023-10-19T00:31:05;3.97;;;1.27;;
11921;SDS011;6021;51.182;3.160;2023-10-19T00:33:38;2.53;;;1.30;;
11921;SDS011;6021;51.182;3.160;2023-10-19T00:36:07;3.17;;;1.30;;
11921;SDS011;6021;51.182;3.160;2023-10-19T00:38:42;2.07;;;1.00;;
11921;SDS011;6021;51.182;3.160;2023-10-19T00:41:18;2.43;;;1.07;;
11921;SDS011;6021;51.182;3.160;2023-10-19T00:43:57;3.40;;;1.10;;
11921;SDS011;6021;51.182;3.160;2023-10-19T00:46:38;2.93;;;1.27;;
11921;SDS011;6021;51.182;3.160;2023-10-19T00:49:10;4.07;;;1.30;;
11921;SDS011;6021;51.182;3.160;2023-10-19T00:51:49;2.83;;;1.10;;
11921;SDS011;6021;51.182;3.160;2023-10-19T00:54:27;2.97;;;1.20;;
11921;SDS011;6021;51.182;3.160;2023-10-19T00:57:06;2.60;;;1.30;;
11921;SDS011;6021;51.182;3.160;2023-10-19T00:59:36;2.50;;;1.37;;
11921;SDS011;6021;51.182;3.160;2023-10-19T01:02:21;5.13;;;1.40;;
11921;SDS011;6021;51.182;3.160;2023-10-19T01:04:54;3.80;;;1.30;;
11921;SDS011;6021;51.182;3.160;2023-10-19T01:07:30;2.30;;;1.10;;
11921;SDS011;6021;51.182;3.160;2023-10-19T01:10:02;3.93;;;1.20;;
11921;SDS011;6021;51.182;3.160;2023-10-19T01:12:32;2.03;;;1.30;;
11921;SDS011;6021;51.182;3.160;2023-10-19T01:17:47;2.43;;;1.17;;
11921;SDS011;6021;51.182;3.160;2023-10-19T01:20:19;2.87;;;1.20;;
11921;SDS011;6021;51.182;3.160;2023-10-19T01:22:50;3.17;;;1.30;;
11921;SDS011;6021;51.182;3.160;2023-10-19T01:25:30;2.73;;;1.20;;
11921;SDS011;6021;51.182;3.160;2023-10-19T01:28:06;4.37;;;1.47;;
11921;SDS011;6021;51.182;3.160;2023-10-19T01:30:36;2.53;;;1.30;;
11921;SDS011;6021;51.182;3.160;2023-10-19T01:33:05;3.53;;;1.43;;
11921;SDS011;6021;51.182;3.160;2023-10-19T01:35:35;2.90;;;1.30;;
11921;SDS011;6021;51.182;3.160;2023-10-19T01:38:21;6.07;;;1.33;;
11921;SDS011;6021;51.182;3.160;2023-10-19T01:40:50;3.93;;;1.20;;
11921;SDS011;6021;51.182;3.160;2023-10-19T01:43:20;2.77;;;1.20;;
11921;SDS011;6021;51.182;3.160;2023-10-19T01:45:48;4.17;;;1.30;;
11921;SDS011;6021;51.182;3.160;2023-10-19T01:48:20;5.07;;;1.53;;
11921;SDS011;6021;51.182;3.160;2023-10-19T01:50:50;3.40;;;1.30;;
11921;SDS011;6021;51.182;3.160;2023-10-19T01:53:18;2.97;;;1.47;;
11921;SDS011;6021;51.182;3.160;2023-10-19T01:55:48;4.10;;;1.37;;
11921;SDS011;6021;51.182;3.160;2023-10-19T01:58:18;1.87;;;1.10;;
11921;SDS011;6021;51.182;3.160;2023-10-19T02:00:46;2.93;;;1.33;;
11921;SDS011;6021;51.182;3.160;2023-10-19T02:03:15;5.07;;;1.70;;
11921;SDS011;6021;51.182;3.160;2023-10-19T02:05:44;3.43;;;1.40;;
11921;SDS011;6021;51.182;3.160;2023-10-19T02:08:14;3.90;;;1.40;;
11921;SDS011;6021;51.182;3.160;2023-10-19T02:10:47;5.20;;;1.80;;
11921;SDS011;6021;51.182;3.160;2023-10-19T02:13:15;3.90;;;1.60;;
11921;SDS011;6021;51.182;3.160;2023-10-19T02:15:44;5.37;;;1.60;;
11921;SDS011;6021;51.182;3.160;2023-10-19T02:18:12;3.70;;;1.60;;
11921;SDS011;6021;51.182;3.160;2023-10-19T02:20:40;4.13;;;1.40;;
11921;SDS011;6021;51.182;3.160;2023-10-19T02:23:10;3.90;;;1.47;;
11921;SDS011;6021;51.182;3.160;2023-10-19T02:25:42;4.37;;;1.80;;
11921;SDS011;6021;51.182;3.160;2023-10-19T02:28:11;2.57;;;1.33;;
11921;SDS011;6021;51.182;3.160;2023-10-19T02:30:39;4.07;;;1.50;;
11921;SDS011;6021;51.182;3.160;2023-10-19T02:33:08;3.60;;;1.50;;
11921;SDS011;6021;51.182;3.160;2023-10-19T02:35:38;3.83;;;1.43;;
11921;SDS011;6021;51.182;3.160;2023-10-19T02:38:07;4.50;;;1.57;;
11921;SDS011;6021;51.182;3.160;2023-10-19T02:40:35;4.30;;;1.70;;
11921;SDS011;6021;51.182;3.160;2023-10-19T02:43:04;2.77;;;1.33;;
11921;SDS011;6021;51.182;3.160;2023-10-19T02:45:34;4.67;;;1.30;;
11921;SDS011;6021;51.182;3.160;2023-10-19T02:48:03;2.77;;;1.30;;
11921;SDS011;6021;51.182;3.160;2023-10-19T02:50:33;4.77;;;1.40;;
11921;SDS011;6021;51.182;3.160;2023-10-19T02:53:02;4.50;;;1.60;;
11921;SDS011;6021;51.182;3.160;2023-10-19T02:55:31;3.23;;;1.40;;
11921;SDS011;6021;51.182;3.160;2023-10-19T02:57:59;4.27;;;1.70;;
11921;SDS011;6021;51.182;3.160;2023-10-19T03:00:28;6.67;;;1.67;;
11921;SDS011;6021;51.182;3.160;2023-10-19T03:02:59;5.27;;;1.67;;
11921;SDS011;6021;51.182;3.160;2023-10-19T03:05:27;5.97;;;1.87;;
11921;SDS011;6021;51.182;3.160;2023-10-19T03:07:56;5.40;;;1.50;;
11921;SDS011;6021;51.182;3.160;2023-10-19T03:10:27;4.60;;;1.53;;
11921;SDS011;6021;51.182;3.160;2023-10-19T03:12:56;4.03;;;1.50;;
11921;SDS011;6021;51.182;3.160;2023-10-19T03:15:24;5.30;;;1.70;;
11921;SDS011;6021;51.182;3.160;2023-10-19T03:17:53;5.93;;;1.43;;
11921;SDS011;6021;51.182;3.160;2023-10-19T03:20:22;5.37;;;1.73;;
11921;SDS011;6021;51.182;3.160;2023-10-19T03:22:52;4.50;;;1.77;;
11921;SDS011;6021;51.182;3.160;2023-10-19T03:25:23;4.70;;;1.60;;
11921;SDS011;6021;51.182;3.160;2023-10-19T03:28:09;4.50;;;1.70;;
11921;SDS011;6021;51.182;3.160;2023-10-19T03:30:42;5.67;;;1.70;;
11921;SDS011;6021;51.182;3.160;2023-10-19T03:33:10;3.47;;;1.57;;
11921;SDS011;6021;51.182;3.160;2023-10-19T03:35:38;4.20;;;1.50;;
11921;SDS011;6021;51.182;3.160;2023-10-19T03:38:09;4.77;;;1.40;;
11921;SDS011;6021;51.182;3.160;2023-10-19T03:40:45;5.73;;;1.60;;
11921;SDS011;6021;51.182;3.160;2023-10-19T03:43:14;4.20;;;1.60;;
11921;SDS011;6021;51.182;3.160;2023-10-19T03:45:47;4.97;;;1.67;;
11921;SDS011;6021;51.182;3.160;2023-10-19T03:48:18;5.37;;;1.63;;
11921;SDS011;6021;51.182;3.160;2023-10-19T03:51:00;4.70;;;1.77;;
11921;SDS011;6021;51.182;3.160;2023-10-19T03:53:29;5.60;;;1.83;;
11921;SDS011;6021;51.182;3.160;2023-10-19T03:55:59;4.20;;;1.73;;
11921;SDS011;6021;51.182;3.160;2023-10-19T03:58:30;4.07;;;1.80;;
11921;SDS011;6021;51.182;3.160;2023-10-19T04:00:58;4.60;;;1.67;;
11921;SDS011;6021;51.182;3.160;2023-10-19T04:03:28;4.30;;;1.50;;
11921;SDS011;6021;51.182;3.160;2023-10-19T04:05:57;5.60;;;1.70;;
11921;SDS011;6021;51.182;3.160;2023-10-19T04:08:27;6.60;;;2.00;;
11921;SDS011;6021;51.182;3.160;2023-10-19T04:10:57;4.37;;;1.70;;
11921;SDS011;6021;51.182;3.160;2023-10-19T04:13:41;6.10;;;1.70;;
11921;SDS011;6021;51.182;3.160;2023-10-19T04:16:11;6.47;;;1.90;;
11921;SDS011;6021;51.182;3.160;2023-10-19T04:18:40;6.63;;;1.90;;
11921;SDS011;6021;51.182;3.160;2023-10-19T04:21:10;4.73;;;1.77;;
11921;SDS011;6021;51.182;3.160;2023-10-19T04:23:39;5.77;;;1.80;;
11921;SDS011;6021;51.182;3.160;2023-10-19T04:26:07;6.77;;;1.83;;
11921;SDS011;6021;51.182;3.160;2023-10-19T04:28:39;5.27;;;1.80;;
11921;SDS011;6021;51.182;3.160;2023-10-19T04:31:16;6.07;;;1.90;;
11921;SDS011;6021;51.182;3.160;2023-10-19T04:33:45;7.47;;;2.17;;
11921;SDS011;6021;51.182;3.160;2023-10-19T04:36:14;5.97;;;1.93;;
11921;SDS011;6021;51.182;3.160;2023-10-19T04:38:44;5.83;;;1.80;;
11921;SDS011;6021;51.182;3.160;2023-10-19T04:41:13;5.90;;;1.90;;
11921;SDS011;6021;51.182;3.160;2023-10-19T04:43:44;9.37;;;2.03;;
11921;SDS011;6021;51.182;3.160;2023-10-19T04:46:14;5.40;;;1.90;;
11921;SDS011;6021;51.182;3.160;2023-10-19T04:48:44;6.73;;;2.07;;
11921;SDS011;6021;51.182;3.160;2023-10-19T04:51:13;6.63;;;2.00;;
11921;SDS011;6021;51.182;3.160;2023-10-19T04:53:41;6.57;;;1.83;;
11921;SDS011;6021;51.182;3.160;2023-10-19T04:56:09;9.13;;;2.00;;
11921;SDS011;6021;51.182;3.160;2023-10-19T04:58:39;5.40;;;1.80;;
11921;SDS011;6021;51.182;3.160;2023-10-19T05:01:07;4.50;;;1.77;;
11921;SDS011;6021;51.182;3.160;2023-10-19T05:03:37;4.93;;;1.90;;
11921;SDS011;6021;51.182;3.160;2023-10-19T05:06:06;6.27;;;2.07;;
11921;SDS011;6021;51.182;3.160;2023-10-19T05:08:36;6.80;;;1.90;;
11921;SDS011;6021;51.182;3.160;2023-10-19T05:11:06;8.33;;;2.13;;
11921;SDS011;6021;51.182;3.160;2023-10-19T05:13:35;5.97;;;2.00;;
11921;SDS011;6021;51.182;3.160;2023-10-19T05:16:03;5.57;;;1.80;;
11921;SDS011;6021;51.182;3.160;2023-10-19T05:18:32;6.07;;;2.10;;
11921;SDS011;6021;51.182;3.160;2023-10-19T05:21:01;7.20;;;2.07;;
11921;SDS011;6021;51.182;3.160;2023-10-19T05:23:29;6.80;;;2.20;;
11921;SDS011;6021;51.182;3.160;2023-10-19T05:26:01;7.10;;;2.37;;
11921;SDS011;6021;51.182;3.160;2023-10-19T05:28:33;5.90;;;1.93;;
11921;SDS011;6021;51.182;3.160;2023-10-19T05:31:01;7.40;;;2.30;;
11921;SDS011;6021;51.182;3.160;2023-10-19T05:33:30;9.53;;;2.30;;
11921;SDS011;6021;51.182;3.160;2023-10-19T05:35:59;7.97;;;2.40;;
11921;SDS011;6021;51.182;3.160;2023-10-19T05:38:27;8.17;;;2.20;;
11921;SDS011;6021;51.182;3.160;2023-10-19T05:40:56;8.60;;;2.37;;
11921;SDS011;6021;51.182;3.160;2023-10-19T05:43:26;8.43;;;2.50;;
11921;SDS011;6021;51.182;3.160;2023-10-19T05:45:55;9.80;;;2.20;;
11921;SDS011;6021;51.182;3.160;2023-10-19T05:48:23;8.40;;;2.30;;
11921;SDS011;6021;51.182;3.160;2023-10-19T05:50:51;8.53;;;2.77;;
11921;SDS011;6021;51.182;3.160;2023-10-19T05:53:20;8.73;;;2.53;;
11921;SDS011;6021;51.182;3.160;2023-10-19T05:55:49;8.57;;;2.60;;
11921;SDS011;6021;51.182;3.160;2023-10-19T05:58:17;7.20;;;2.60;;
11921;SDS011;6021;51.182;3.160;2023-10-19T06:00:46;7.57;;;2.60;;
11921;SDS011;6021;51.182;3.160;2023-10-19T06:03:16;6.03;;;2.40;;
11921;SDS011;6021;51.182;3.160;2023-10-19T06:05:45;10.40;;;2.90;;
11921;SDS011;6021;51.182;3.160;2023-10-19T06:08:14;6.97;;;2.70;;
11921;SDS011;6021;51.182;3.160;2023-10-19T06:10:42;7.27;;;2.60;;
11921;SDS011;6021;51.182;3.160;2023-10-19T06:13:11;9.60;;;2.70;;
11921;SDS011;6021;51.182;3.160;2023-10-19T06:15:40;8.47;;;2.53;;
11921;SDS011;6021;51.182;3.160;2023-10-19T06:18:08;8.70;;;2.87;;
11921;SDS011;6021;51.182;3.160;2023-10-19T06:20:37;12.67;;;3.03;;
11921;SDS011;6021;51.182;3.160;2023-10-19T06:23:06;11.90;;;2.73;;
11921;SDS011;6021;51.182;3.160;2023-10-19T06:25:35;8.37;;;2.60;;
11921;SDS011;6021;51.182;3.160;2023-10-19T06:28:03;8.40;;;3.00;;
11921;SDS011;6021;51.182;3.160;2023-10-19T06:30:33;11.57;;;2.93;;
11921;SDS011;6021;51.182;3.160;2023-10-19T06:33:02;9.30;;;2.90;;
11921;SDS011;6021;51.182;3.160;2023-10-19T06:35:30;8.73;;;2.60;;
11921;SDS011;6021;51.182;3.160;2023-10-19T06:38:00;9.33;;;3.00;;
11921;SDS011;6021;51.182;3.160;2023-10-19T06:40:30;13.93;;;3.40;;
11921;SDS011;6021;51.182;3.160;2023-10-19T06:43:01;10.87;;;3.20;;
11921;SDS011;6021;51.182;3.160;2023-10-19T06:45:29;10.53;;;2.90;;
11921;SDS011;6021;51.182;3.160;2023-10-19T06:47:58;11.80;;;3.07;;
11921;SDS011;6021;51.182;3.160;2023-10-19T06:50:30;13.23;;;3.40;;
11921;SDS011;6021;51.182;3.160;2023-10-19T06:52:58;10.30;;;3.10;;
11921;SDS011;6021;51.182;3.160;2023-10-19T06:55:27;10.30;;;3.50;;
11921;SDS011;6021;51.182;3.160;2023-10-19T06:57:55;8.80;;;3.07;;
11921;SDS011;6021;51.182;3.160;2023-10-19T07:00:24;12.43;;;3.33;;
11921;SDS011;6021;51.182;3.160;2023-10-19T07:02:56;11.83;;;3.30;;
11921;SDS011;6021;51.182;3.160;2023-10-19T07:05:28;11.53;;;3.33;;
11921;SDS011;6021;51.182;3.160;2023-10-19T07:07:57;11.03;;;3.20;;
11921;SDS011;6021;51.182;3.160;2023-10-19T07:10:26;10.03;;;3.17;;
11921;SDS011;6021;51.182;3.160;2023-10-19T07:12:55;10.20;;;3.27;;
11921;SDS011;6021;51.182;3.160;2023-10-19T07:15:24;9.87;;;3.43;;
11921;SDS011;6021;51.182;3.160;2023-10-19T07:17:53;11.80;;;3.30;;
11921;SDS011;6021;51.182;3.160;2023-10-19T07:20:22;11.47;;;3.27;;
11921;SDS011;6021;51.182;3.160;2023-10-19T07:22:59;14.17;;;3.47;;
11921;SDS011;6021;51.182;3.160;2023-10-19T07:25:39;13.70;;;3.73;;
11921;SDS011;6021;51.182;3.160;2023-10-19T07:28:11;8.73;;;3.00;;
11921;SDS011;6021;51.182;3.160;2023-10-19T07:30:40;14.33;;;3.63;;
11921;SDS011;6021;51.182;3.160;2023-10-19T07:33:10;9.30;;;3.63;;
11921;SDS011;6021;51.182;3.160;2023-10-19T07:35:40;9.47;;;3.43;;
11921;SDS011;6021;51.182;3.160;2023-10-19T07:38:10;12.00;;;3.53;;
11921;SDS011;6021;51.182;3.160;2023-10-19T07:40:39;10.47;;;3.67;;
11921;SDS011;6021;51.182;3.160;2023-10-19T07:43:08;10.37;;;3.23;;
11921;SDS011;6021;51.182;3.160;2023-10-19T07:45:36;10.67;;;3.37;;
11921;SDS011;6021;51.182;3.160;2023-10-19T07:48:05;10.57;;;3.50;;
11921;SDS011;6021;51.182;3.160;2023-10-19T07:50:36;14.03;;;4.00;;
11921;SDS011;6021;51.182;3.160;2023-10-19T07:53:07;11.70;;;3.40;;
11921;SDS011;6021;51.182;3.160;2023-10-19T07:55:36;12.03;;;3.70;;
11921;SDS011;6021;51.182;3.160;2023-10-19T07:58:05;13.17;;;4.23;;
11921;SDS011;6021;51.182;3.160;2023-10-19T08:00:34;10.63;;;3.50;;
11921;SDS011;6021;51.182;3.160;2023-10-19T08:03:03;14.53;;;4.03;;
11921;SDS011;6021;51.182;3.160;2023-10-19T08:05:32;17.37;;;4.40;;
11921;SDS011;6021;51.182;3.160;2023-10-19T08:08:01;9.60;;;3.80;;
11921;SDS011;6021;51.182;3.160;2023-10-19T08:10:31;11.10;;;4.37;;
11921;SDS011;6021;51.182;3.160;2023-10-19T08:13:01;13.20;;;4.10;;
11921;SDS011;6021;51.182;3.160;2023-10-19T08:15:30;13.13;;;3.87;;
11921;SDS011;6021;51.182;3.160;2023-10-19T08:17:58;10.97;;;3.70;;
11921;SDS011;6021;51.182;3.160;2023-10-19T08:20:27;12.80;;;3.60;;
11921;SDS011;6021;51.182;3.160;2023-10-19T08:22:59;13.73;;;3.57;;
11921;SDS011;6021;51.182;3.160;2023-10-19T08:25:29;12.73;;;3.60;;
11921;SDS011;6021;51.182;3.160;2023-10-19T08:27:57;13.07;;;3.83;;
11921;SDS011;6021;51.182;3.160;2023-10-19T08:30:26;14.63;;;4.10;;
11921;SDS011;6021;51.182;3.160;2023-10-19T08:32:55;16.23;;;4.00;;
11921;SDS011;6021;51.182;3.160;2023-10-19T08:35:24;13.37;;;4.23;;
11921;SDS011;6021;51.182;3.160;2023-10-19T08:37:54;9.67;;;3.40;;
11921;SDS011;6021;51.182;3.160;2023-10-19T08:40:25;14.57;;;4.03;;
11921;SDS011;6021;51.182;3.160;2023-10-19T08:42:54;13.30;;;4.00;;
11921;SDS011;6021;51.182;3.160;2023-10-19T08:45:23;11.90;;;3.67;;
11921;SDS011;6021;51.182;3.160;2023-10-19T08:47:55;12.00;;;3.70;;
11921;SDS011;6021;51.182;3.160;2023-10-19T08:50:28;13.47;;;3.70;;
11921;SDS011;6021;51.182;3.160;2023-10-19T08:52:59;10.37;;;3.40;;
11921;SDS011;6021;51.182;3.160;2023-10-19T08:55:29;15.60;;;3.70;;
11921;SDS011;6021;51.182;3.160;2023-10-19T08:58:00;13.13;;;3.80;;
11921;SDS011;6021;51.182;3.160;2023-10-19T09:00:42;12.27;;;3.80;;
11921;SDS011;6021;51.182;3.160;2023-10-19T09:03:13;11.47;;;3.27;;
11921;SDS011;6021;51.182;3.160;2023-10-19T09:05:43;11.30;;;3.77;;
11921;SDS011;6021;51.182;3.160;2023-10-19T09:08:16;14.03;;;3.90;;
11921;SDS011;6021;51.182;3.160;2023-10-19T09:10:49;12.57;;;3.63;;
11921;SDS011;6021;51.182;3.160;2023-10-19T09:13:18;14.93;;;3.83;;
11921;SDS011;6021;51.182;3.160;2023-10-19T09:15:49;15.53;;;4.10;;
11921;SDS011;6021;51.182;3.160;2023-10-19T09:18:22;12.27;;;3.40;;
11921;SDS011;6021;51.182;3.160;2023-10-19T09:20:54;14.07;;;4.27;;
11921;SDS011;6021;51.182;3.160;2023-10-19T09:23:25;13.93;;;3.63;;
11921;SDS011;6021;51.182;3.160;2023-10-19T09:25:57;14.67;;;3.70;;
11921;SDS011;6021;51.182;3.160;2023-10-19T09:28:32;13.40;;;3.77;;
11921;SDS011;6021;51.182;3.160;2023-10-19T09:31:02;11.77;;;3.50;;
11921;SDS011;6021;51.182;3.160;2023-10-19T09:33:33;13.73;;;3.70;;
11921;SDS011;6021;51.182;3.160;2023-10-19T09:36:02;10.87;;;3.57;;
11921;SDS011;6021;51.182;3.160;2023-10-19T09:38:32;14.80;;;4.00;;
11921;SDS011;6021;51.182;3.160;2023-10-19T09:41:01;12.87;;;3.37;;
11921;SDS011;6021;51.182;3.160;2023-10-19T09:43:37;14.37;;;3.70;;
11921;SDS011;6021;51.182;3.160;2023-10-19T09:46:06;12.80;;;3.37;;
11921;SDS011;6021;51.182;3.160;2023-10-19T09:48:40;10.00;;;3.40;;
11921;SDS011;6021;51.182;3.160;2023-10-19T09:51:09;11.93;;;3.20;;
11921;SDS011;6021;51.182;3.160;2023-10-19T09:53:38;13.30;;;3.50;;
11921;SDS011;6021;51.182;3.160;2023-10-19T09:56:08;13.57;;;3.80;;
11921;SDS011;6021;51.182;3.160;2023-10-19T09:58:40;15.87;;;4.10;;
11921;SDS011;6021;51.182;3.160;2023-10-19T10:01:15;12.77;;;3.30;;
11921;SDS011;6021;51.182;3.160;2023-10-19T10:03:46;12.20;;;3.47;;
11921;SDS011;6021;51.182;3.160;2023-10-19T10:06:29;13.83;;;3.17;;
11921;SDS011;6021;51.182;3.160;2023-10-19T10:09:00;10.63;;;3.17;;
11921;SDS011;6021;51.182;3.160;2023-10-19T10:11:30;14.23;;;3.63;;
11921;SDS011;6021;51.182;3.160;2023-10-19T10:13:58;10.83;;;3.23;;
11921;SDS011;6021;51.182;3.160;2023-10-19T10:16:27;12.13;;;3.70;;
11921;SDS011;6021;51.182;3.160;2023-10-19T10:18:57;9.37;;;2.90;;
11921;SDS011;6021;51.182;3.160;2023-10-19T10:21:28;12.83;;;3.67;;
11921;SDS011;6021;51.182;3.160;2023-10-19T10:24:03;10.37;;;3.27;;
11921;SDS011;6021;51.182;3.160;2023-10-19T10:26:28;14.37;;;3.50;;
11921;SDS011;6021;51.182;3.160;2023-10-19T10:29:21;16.03;;;3.70;;
11921;SDS011;6021;51.182;3.160;2023-10-19T10:31:44;10.90;;;3.17;;
11921;SDS011;6021;51.182;3.160;2023-10-19T10:37:10;9.80;;;3.37;;
11921;SDS011;6021;51.182;3.160;2023-10-19T10:39:41;11.27;;;3.10;;
11921;SDS011;6021;51.182;3.160;2023-10-19T10:42:11;13.73;;;3.80;;
11921;SDS011;6021;51.182;3.160;2023-10-19T10:44:49;8.20;;;3.00;;
11921;SDS011;6021;51.182;3.160;2023-10-19T10:49:50;11.33;;;3.40;;
11921;SDS011;6021;51.182;3.160;2023-10-19T10:52:26;11.17;;;3.33;;
11921;SDS011;6021;51.182;3.160;2023-10-19T10:54:56;12.00;;;3.83;;
11921;SDS011;6021;51.182;3.160;2023-10-19T10:57:32;10.43;;;3.17;;
11921;SDS011;6021;51.182;3.160;2023-10-19T11:00:05;10.50;;;3.43;;
11921;SDS011;6021;51.182;3.160;2023-10-19T11:02:36;10.30;;;3.43;;
11921;SDS011;6021;51.182;3.160;2023-10-19T11:05:06;11.83;;;3.50;;
11921;SDS011;6021;51.182;3.160;2023-10-19T11:10:07;9.47;;;3.37;;
11921;SDS011;6021;51.182;3.160;2023-10-19T11:12:37;10.80;;;3.33;;
11921;SDS011;6021;51.182;3.160;2023-10-19T11:15:05;10.27;;;3.10;;
11921;SDS011;6021;51.182;3.160;2023-10-19T11:17:43;8.30;;;3.13;;
11921;SDS011;6021;51.182;3.160;2023-10-19T11:20:20;9.03;;;2.73;;
11921;SDS011;6021;51.182;3.160;2023-10-19T11:22:49;9.27;;;3.10;;
11921;SDS011;6021;51.182;3.160;2023-10-19T11:25:20;11.33;;;2.90;;
11921;SDS011;6021;51.182;3.160;2023-10-19T11:27:50;11.13;;;2.90;;
11921;SDS011;6021;51.182;3.160;2023-10-19T11:30:24;8.57;;;2.73;;
11921;SDS011;6021;51.182;3.160;2023-10-19T11:32:59;8.87;;;2.90;;
11921;SDS011;6021;51.182;3.160;2023-10-19T11:35:30;8.53;;;3.07;;
11921;SDS011;6021;51.182;3.160;2023-10-19T11:38:00;10.63;;;3.40;;
11921;SDS011;6021;51.182;3.160;2023-10-19T11:40:31;11.30;;;3.47;;
11921;SDS011;6021;51.182;3.160;2023-10-19T11:42:59;10.20;;;3.30;;
11921;SDS011;6021;51.182;3.160;2023-10-19T11:45:28;7.47;;;2.90;;
11921;SDS011;6021;51.182;3.160;2023-10-19T11:47:58;8.93;;;3.10;;
11921;SDS011;6021;51.182;3.160;2023-10-19T11:50:26;11.03;;;3.00;;
11921;SDS011;6021;51.182;3.160;2023-10-19T11:52:54;9.00;;;2.67;;
11921;SDS011;6021;51.182;3.160;2023-10-19T11:55:23;8.77;;;2.93;;
11921;SDS011;6021;51.182;3.160;2023-10-19T11:57:53;8.60;;;2.90;;
11921;SDS011;6021;51.182;3.160;2023-10-19T12:00:21;7.20;;;2.80;;
11921;SDS011;6021;51.182;3.160;2023-10-19T12:02:51;9.13;;;3.10;;
11921;SDS011;6021;51.182;3.160;2023-10-19T12:05:19;6.13;;;2.60;;
11921;SDS011;6021;51.182;3.160;2023-10-19T12:07:48;7.97;;;2.50;;
11921;SDS011;6021;51.182;3.160;2023-10-19T12:10:16;8.00;;;2.67;;
11921;SDS011;6021;51.182;3.160;2023-10-19T12:12:46;6.10;;;2.57;;
11921;SDS011;6021;51.182;3.160;2023-10-19T12:15:14;6.47;;;2.60;;
11921;SDS011;6021;51.182;3.160;2023-10-19T12:17:43;7.43;;;2.80;;
11921;SDS011;6021;51.182;3.160;2023-10-19T12:20:11;5.37;;;2.40;;
11921;SDS011;6021;51.182;3.160;2023-10-19T12:22:40;9.63;;;2.50;;
11921;SDS011;6021;51.182;3.160;2023-10-19T12:25:09;9.40;;;2.80;;
11921;SDS011;6021;51.182;3.160;2023-10-19T12:27:37;8.23;;;2.80;;
11921;SDS011;6021;51.182;3.160;2023-10-19T12:30:06;6.73;;;2.63;;
11921;SDS011;6021;51.182;3.160;2023-10-19T12:32:36;10.90;;;2.40;;
11921;SDS011;6021;51.182;3.160;2023-10-19T12:35:04;5.47;;;2.50;;
11921;SDS011;6021;51.182;3.160;2023-10-19T12:37:34;7.30;;;2.40;;
11921;SDS011;6021;51.182;3.160;2023-10-19T12:40:05;7.37;;;2.67;;
11921;SDS011;6021;51.182;3.160;2023-10-19T12:42:35;8.60;;;3.10;;
11921;SDS011;6021;51.182;3.160;2023-10-19T12:45:04;6.10;;;2.60;;
11921;SDS011;6021;51.182;3.160;2023-10-19T12:47:34;6.67;;;2.50;;
11921;SDS011;6021;51.182;3.160;2023-10-19T12:50:02;6.53;;;2.50;;
11921;SDS011;6021;51.182;3.160;2023-10-19T12:52:33;5.57;;;2.60;;
11921;SDS011;6021;51.182;3.160;2023-10-19T12:55:03;8.63;;;2.80;;
11921;SDS011;6021;51.182;3.160;2023-10-19T12:57:33;6.27;;;2.53;;
11921;SDS011;6021;51.182;3.160;2023-10-19T13:00:02;8.67;;;2.63;;
11921;SDS011;6021;51.182;3.160;2023-10-19T13:02:32;8.03;;;2.70;;
11921;SDS011;6021;51.182;3.160;2023-10-19T13:05:01;5.73;;;2.43;;
11921;SDS011;6021;51.182;3.160;2023-10-19T13:07:29;4.37;;;2.40;;
11921;SDS011;6021;51.182;3.160;2023-10-19T13:09:58;6.30;;;2.57;;
11921;SDS011;6021;51.182;3.160;2023-10-19T13:12:26;3.97;;;2.07;;
11921;SDS011;6021;51.182;3.160;2023-10-19T13:14:54;5.73;;;2.30;;
11921;SDS011;6021;51.182;3.160;2023-10-19T13:17:22;5.40;;;2.37;;
11921;SDS011;6021;51.182;3.160;2023-10-19T13:19:51;6.93;;;2.37;;
11921;SDS011;6021;51.182;3.160;2023-10-19T13:22:22;5.33;;;2.10;;
11921;SDS011;6021;51.182;3.160;2023-10-19T13:24:51;5.67;;;2.30;;
11921;SDS011;6021;51.182;3.160;2023-10-19T13:27:20;4.97;;;2.30;;
11921;SDS011;6021;51.182;3.160;2023-10-19T13:29:48;6.30;;;2.20;;
11921;SDS011;6021;51.182;3.160;2023-10-19T13:32:17;6.10;;;2.20;;
11921;SDS011;6021;51.182;3.160;2023-10-19T13:34:46;3.93;;;2.20;;
11921;SDS011;6021;51.182;3.160;2023-10-19T13:37:14;5.40;;;2.50;;
11921;SDS011;6021;51.182;3.160;2023-10-19T13:39:42;3.90;;;2.00;;
11921;SDS011;6021;51.182;3.160;2023-10-19T13:42:11;6.50;;;2.07;;
11921;SDS011;6021;51.182;3.160;2023-10-19T13:44:40;5.57;;;2.23;;
11921;SDS011;6021;51.182;3.160;2023-10-19T13:47:09;5.20;;;2.20;;
11921;SDS011;6021;51.182;3.160;2023-10-19T13:49:38;3.93;;;2.07;;
11921;SDS011;6021;51.182;3.160;2023-10-19T13:52:06;6.23;;;2.20;;
11921;SDS011;6021;51.182;3.160;2023-10-19T13:54:38;4.27;;;2.30;;
11921;SDS011;6021;51.182;3.160;2023-10-19T13:57:07;5.73;;;2.67;;
11921;SDS011;6021;51.182;3.160;2023-10-19T13:59:36;5.37;;;2.37;;
11921;SDS011;6021;51.182;3.160;2023-10-19T14:02:05;6.83;;;2.50;;
11921;SDS011;6021;51.182;3.160;2023-10-19T14:04:34;7.37;;;2.33;;
11921;SDS011;6021;51.182;3.160;2023-10-19T14:07:02;4.77;;;2.20;;
11921;SDS011;6021;51.182;3.160;2023-10-19T14:09:31;6.00;;;2.17;;
11921;SDS011;6021;51.182;3.160;2023-10-19T14:12:00;5.30;;;2.10;;
11921;SDS011;6021;51.182;3.160;2023-10-19T14:14:29;4.47;;;2.07;;
11921;SDS011;6021;51.182;3.160;2023-10-19T14:16:58;6.07;;;2.23;;
11921;SDS011;6021;51.182;3.160;2023-10-19T14:19:27;11.07;;;3.73;;
11921;SDS011;6021;51.182;3.160;2023-10-19T14:21:55;5.23;;;2.10;;
11921;SDS011;6021;51.182;3.160;2023-10-19T14:24:23;4.07;;;2.13;;
11921;SDS011;6021;51.182;3.160;2023-10-19T14:26:52;7.17;;;2.53;;
11921;SDS011;6021;51.182;3.160;2023-10-19T14:29:20;7.00;;;2.60;;
11921;SDS011;6021;51.182;3.160;2023-10-19T14:31:49;4.47;;;2.20;;
11921;SDS011;6021;51.182;3.160;2023-10-19T14:34:17;6.67;;;2.47;;
11921;SDS011;6021;51.182;3.160;2023-10-19T14:36:45;4.03;;;2.37;;
11921;SDS011;6021;51.182;3.160;2023-10-19T14:39:14;5.73;;;2.33;;
11921;SDS011;6021;51.182;3.160;2023-10-19T14:41:44;5.67;;;2.63;;
11921;SDS011;6021;51.182;3.160;2023-10-19T14:44:13;5.33;;;2.47;;
11921;SDS011;6021;51.182;3.160;2023-10-19T14:46:41;3.73;;;2.10;;
11921;SDS011;6021;51.182;3.160;2023-10-19T14:49:10;7.77;;;2.37;;
11921;SDS011;6021;51.182;3.160;2023-10-19T14:51:38;5.37;;;2.10;;
11921;SDS011;6021;51.182;3.160;2023-10-19T14:54:07;6.17;;;2.17;;
11921;SDS011;6021;51.182;3.160;2023-10-19T14:56:37;3.87;;;1.87;;
11921;SDS011;6021;51.182;3.160;2023-10-19T14:59:06;5.87;;;2.53;;
11921;SDS011;6021;51.182;3.160;2023-10-19T15:01:34;5.43;;;2.40;;
11921;SDS011;6021;51.182;3.160;2023-10-19T15:04:02;5.97;;;2.40;;
11921;SDS011;6021;51.182;3.160;2023-10-19T15:06:32;3.27;;;2.10;;
11921;SDS011;6021;51.182;3.160;2023-10-19T15:09:01;8.37;;;2.50;;
11921;SDS011;6021;51.182;3.160;2023-10-19T15:11:30;5.27;;;2.20;;
11921;SDS011;6021;51.182;3.160;2023-10-19T15:13:58;4.17;;;2.00;;
11921;SDS011;6021;51.182;3.160;2023-10-19T15:16:26;5.10;;;2.20;;
11921;SDS011;6021;51.182;3.160;2023-10-19T15:18:54;4.53;;;2.50;;
11921;SDS011;6021;51.182;3.160;2023-10-19T15:21:23;5.20;;;2.20;;
11921;SDS011;6021;51.182;3.160;2023-10-19T15:23:51;3.27;;;1.80;;
11921;SDS011;6021;51.182;3.160;2023-10-19T15:26:19;5.07;;;2.43;;